sensor_id;sensor_type;location;lat;lon;timestamp;pressure;altitude;pressure_sealevel;temperature;humidity
26436;BME280;15351;52.408;16.826;2023-02-20T00:01:52;101327.72;;;3.40;65.21
26436;BME280;15351;52.408;16.826;2023-02-20T00:04:21;101330.23;;;3.45;65.25
26436;BME280;15351;52.408;16.826;2023-02-20T00:06:48;101332.34;;;3.50;65.16
26436;BME280;15351;52.408;16.826;2023-02-20T00:09:35;101332.48;;;3.51;65.06
26436;BME280;15351;52.408;16.826;2023-02-20T00:12:04;101330.41;;;3.48;65.09
26436;BME280;15351;52.408;16.826;2023-02-20T00:14:38;101332.38;;;3.45;65.23
26436;BME280;15351;52.408;16.826;2023-02-20T00:17:06;101329.37;;;3.45;65.42
26436;BME280;15351;52.408;16.826;2023-02-20T00:19:34;101330.92;;;3.48;65.50
26436;BME280;15351;52.408;16.826;2023-02-20T00:22:01;101330.84;;;3.51;65.53
26436;BME280;15351;52.408;16.826;2023-02-20T00:24:28;101332.92;;;3.54;65.56
26436;BME280;15351;52.408;16.826;2023-02-20T00:26:56;101336.05;;;3.55;65.54
26436;BME280;15351;52.408;16.826;2023-02-20T00:29:23;101332.75;;;3.54;65.64
26436;BME280;15351;52.408;16.826;2023-02-20T00:31:52;101337.13;;;3.53;65.81
26436;BME280;15351;52.408;16.826;2023-02-20T00:34:22;101329.90;;;3.57;66.04
26436;BME280;15351;52.408;16.826;2023-02-20T00:36:53;101326.91;;;3.58;66.06
26436;BME280;15351;52.408;16.826;2023-02-20T00:39:25;101325.94;;;3.62;66.09
26436;BME280;15351;52.408;16.826;2023-02-20T00:42:21;101318.64;;;3.65;66.20
26436;BME280;15351;52.408;16.826;2023-02-20T00:44:57;101318.06;;;3.63;66.36
26436;BME280;15351;52.408;16.826;2023-02-20T00:47:24;101321.34;;;3.69;66.59
26436;BME280;15351;52.408;16.826;2023-02-20T00:49:57;101308.31;;;3.74;66.62
26436;BME280;15351;52.408;16.826;2023-02-20T00:52:24;101303.52;;;3.76;66.61
26436;BME280;15351;52.408;16.826;2023-02-20T00:55:02;101303.23;;;3.78;66.49
26436;BME280;15351;52.408;16.826;2023-02-20T00:57:30;101296.73;;;3.81;66.43
26436;BME280;15351;52.408;16.826;2023-02-20T00:59:59;101286.48;;;3.80;66.64
26436;BME280;15351;52.408;16.826;2023-02-20T01:02:28;101279.32;;;3.81;66.84
26436;BME280;15351;52.408;16.826;2023-02-20T01:05:01;101273.23;;;3.84;66.92
26436;BME280;15351;52.408;16.826;2023-02-20T01:07:49;101269.96;;;3.87;66.81
26436;BME280;15351;52.408;16.826;2023-02-20T01:10:17;101258.65;;;3.88;66.92
26436;BME280;15351;52.408;16.826;2023-02-20T01:13:06;101263.25;;;3.91;66.86
26436;BME280;15351;52.408;16.826;2023-02-20T01:16:12;101271.52;;;3.93;67.06
26436;BME280;15351;52.408;16.826;2023-02-20T01:18:40;101278.17;;;3.96;67.32
26436;BME280;15351;52.408;16.826;2023-02-20T01:21:10;101275.52;;;4.00;67.17
26436;BME280;15351;52.408;16.826;2023-02-20T01:23:42;101273.97;;;4.06;67.22
26436;BME280;15351;52.408;16.826;2023-02-20T01:26:13;101268.84;;;4.09;66.99
26436;BME280;15351;52.408;16.826;2023-02-20T01:28:43;101260.27;;;4.07;67.15
26436;BME280;15351;52.408;16.826;2023-02-20T01:31:12;101257.61;;;4.06;67.25
26436;BME280;15351;52.408;16.826;2023-02-20T01:33:42;101253.20;;;4.06;67.17
26436;BME280;15351;52.408;16.826;2023-02-20T01:36:12;101253.95;;;4.05;67.13
26436;BME280;15351;52.408;16.826;2023-02-20T01:38:42;101243.47;;;4.05;67.12
26436;BME280;15351;52.408;16.826;2023-02-20T01:41:17;101244.92;;;4.02;67.20
26436;BME280;15351;52.408;16.826;2023-02-20T01:43:49;101245.77;;;3.94;67.19
26436;BME280;15351;52.408;16.826;2023-02-20T01:49:42;101242.86;;;3.93;67.42
26436;BME280;15351;52.408;16.826;2023-02-20T01:52:42;101235.80;;;3.92;67.66
26436;BME280;15351;52.408;16.826;2023-02-20T01:55:17;101237.68;;;3.90;67.65
26436;BME280;15351;52.408;16.826;2023-02-20T01:58:01;101233.33;;;3.89;67.94
26436;BME280;15351;52.408;16.826;2023-02-20T02:00:31;101238.24;;;3.92;68.08
26436;BME280;15351;52.408;16.826;2023-02-20T02:03:12;101229.23;;;3.94;68.21
26436;BME280;15351;52.408;16.826;2023-02-20T02:05:53;101216.95;;;3.98;68.22
26436;BME280;15351;52.408;16.826;2023-02-20T02:08:53;101220.17;;;4.00;68.21
26436;BME280;15351;52.408;16.826;2023-02-20T02:11:36;101230.45;;;4.01;68.26
26436;BME280;15351;52.408;16.826;2023-02-20T02:14:10;101224.09;;;4.05;68.48
26436;BME280;15351;52.408;16.826;2023-02-20T02:37:54;101155.68;;;4.17;68.59
26436;BME280;15351;52.408;16.826;2023-02-20T02:43:43;101160.16;;;4.18;69.12
26436;BME280;15351;52.408;16.826;2023-02-20T02:46:41;101160.86;;;4.26;69.11
26436;BME280;15351;52.408;16.826;2023-02-20T02:52:26;101167.26;;;4.28;69.15
26436;BME280;15351;52.408;16.826;2023-02-20T02:55:11;101169.72;;;4.28;69.39
26436;BME280;15351;52.408;16.826;2023-02-20T02:57:41;101171.92;;;4.30;69.30
26436;BME280;15351;52.408;16.826;2023-02-20T03:00:27;101167.07;;;4.28;69.34
26436;BME280;15351;52.408;16.826;2023-02-20T03:03:11;101162.15;;;4.23;69.36
26436;BME280;15351;52.408;16.826;2023-02-20T03:05:44;101153.19;;;4.24;69.53
26436;BME280;15351;52.408;16.826;2023-02-20T03:08:42;101147.25;;;4.22;69.67
26436;BME280;15351;52.408;16.826;2023-02-20T03:11:15;101149.40;;;4.26;69.69
26436;BME280;15351;52.408;16.826;2023-02-20T03:14:00;101151.83;;;4.25;69.55
26436;BME280;15351;52.408;16.826;2023-02-20T03:16:54;101150.41;;;4.23;69.68
26436;BME280;15351;52.408;16.826;2023-02-20T03:19:43;101144.27;;;4.24;69.73
26436;BME280;15351;52.408;16.826;2023-02-20T03:22:25;101132.52;;;4.28;69.95
26436;BME280;15351;52.408;16.826;2023-02-20T03:24:55;101125.66;;;4.32;70.00
26436;BME280;15351;52.408;16.826;2023-02-20T03:27:48;101127.09;;;4.32;69.82
26436;BME280;15351;52.408;16.826;2023-02-20T03:32:54;101129.15;;;4.28;69.92
26436;BME280;15351;52.408;16.826;2023-02-20T03:35:43;101124.76;;;4.30;70.23
26436;BME280;15351;52.408;16.826;2023-02-20T03:38:33;101124.61;;;4.31;70.23
26436;BME280;15351;52.408;16.826;2023-02-20T03:41:22;101119.59;;;4.32;70.18
26436;BME280;15351;52.408;16.826;2023-02-20T03:44:13;101120.68;;;4.31;70.26
26436;BME280;15351;52.408;16.826;2023-02-20T03:46:44;101125.44;;;4.30;70.42
26436;BME280;15351;52.408;16.826;2023-02-20T03:49:24;101126.41;;;4.33;70.48
26436;BME280;15351;52.408;16.826;2023-02-20T03:52:19;101116.38;;;4.34;70.38
26436;BME280;15351;52.408;16.826;2023-02-20T03:54:48;101117.80;;;4.30;70.53
26436;BME280;15351;52.408;16.826;2023-02-20T03:57:19;101119.79;;;4.27;70.57
26436;BME280;15351;52.408;16.826;2023-02-20T03:59:52;101119.86;;;4.26;70.81
26436;BME280;15351;52.408;16.826;2023-02-20T04:02:24;101111.02;;;4.30;70.91
26436;BME280;15351;52.408;16.826;2023-02-20T04:04:56;101108.52;;;4.28;70.77
26436;BME280;15351;52.408;16.826;2023-02-20T04:07:37;101109.23;;;4.23;70.91
26436;BME280;15351;52.408;16.826;2023-02-20T04:10:12;101105.17;;;4.23;71.04
26436;BME280;15351;52.408;16.826;2023-02-20T04:12:43;101106.44;;;4.23;71.18
26436;BME280;15351;52.408;16.826;2023-02-20T04:15:12;101097.56;;;4.25;71.30
26436;BME280;15351;52.408;16.826;2023-02-20T04:17:52;101093.63;;;4.25;71.36
26436;BME280;15351;52.408;16.826;2023-02-20T04:20:21;101101.80;;;4.20;71.43
26436;BME280;15351;52.408;16.826;2023-02-20T04:23:03;101100.63;;;4.22;71.47
26436;BME280;15351;52.408;16.826;2023-02-20T04:25:51;101099.11;;;4.25;71.73
26436;BME280;15351;52.408;16.826;2023-02-20T04:28:20;101095.95;;;4.29;71.82
26436;BME280;15351;52.408;16.826;2023-02-20T04:30:53;101091.73;;;4.35;71.76
26436;BME280;15351;52.408;16.826;2023-02-20T04:33:22;101087.91;;;4.36;71.66
26436;BME280;15351;52.408;16.826;2023-02-20T04:35:50;101082.83;;;4.35;71.65
26436;BME280;15351;52.408;16.826;2023-02-20T04:38:18;101079.08;;;4.38;71.85
26436;BME280;15351;52.408;16.826;2023-02-20T04:40:45;101078.55;;;4.42;72.08
26436;BME280;15351;52.408;16.826;2023-02-20T04:43:12;101082.17;;;4.49;71.87
26436;BME280;15351;52.408;16.826;2023-02-20T04:45:40;101078.55;;;4.52;71.69
26436;BME280;15351;52.408;16.826;2023-02-20T04:48:07;101076.52;;;4.49;71.69
26436;BME280;15351;52.408;16.826;2023-02-20T04:50:34;101071.02;;;4.49;71.87
26436;BME280;15351;52.408;16.826;2023-02-20T04:53:03;101063.05;;;4.48;71.80
26436;BME280;15351;52.408;16.826;2023-02-20T04:55:30;101059.52;;;4.48;71.98
26436;BME280;15351;52.408;16.826;2023-02-20T04:58:00;101050.45;;;4.48;71.82
26436;BME280;15351;52.408;16.826;2023-02-20T05:00:31;101045.06;;;4.48;72.07
26436;BME280;15351;52.408;16.826;2023-02-20T05:02:58;101031.97;;;4.49;72.14
26436;BME280;15351;52.408;16.826;2023-02-20T05:05:28;101020.24;;;4.49;72.28
26436;BME280;15351;52.408;16.826;2023-02-20T05:08:05;101015.37;;;4.52;72.13
26436;BME280;15351;52.408;16.826;2023-02-20T05:10:34;101010.48;;;4.51;72.28
26436;BME280;15351;52.408;16.826;2023-02-20T05:13:02;101009.42;;;4.46;72.44
26436;BME280;15351;52.408;16.826;2023-02-20T05:15:30;101006.06;;;4.42;72.64
26436;BME280;15351;52.408;16.826;2023-02-20T05:17:59;101003.48;;;4.45;73.00
26436;BME280;15351;52.408;16.826;2023-02-20T05:20:36;101006.70;;;4.45;73.06
26436;BME280;15351;52.408;16.826;2023-02-20T05:23:45;101000.52;;;4.38;73.15
26436;BME280;15351;52.408;16.826;2023-02-20T05:26:17;101002.88;;;4.33;73.26
26436;BME280;15351;52.408;16.826;2023-02-20T05:28:44;100995.14;;;4.36;73.59
26436;BME280;15351;52.408;16.826;2023-02-20T05:31:12;100981.99;;;4.41;73.58
26436;BME280;15351;52.408;16.826;2023-02-20T05:33:39;100973.84;;;4.40;73.47
26436;BME280;15351;52.408;16.826;2023-02-20T05:36:07;100971.52;;;4.40;73.47
26436;BME280;15351;52.408;16.826;2023-02-20T05:38:34;100969.37;;;4.41;73.58
26436;BME280;15351;52.408;16.826;2023-02-20T05:41:01;100974.58;;;4.44;73.74
26436;BME280;15351;52.408;16.826;2023-02-20T05:43:28;100977.11;;;4.45;73.63
26436;BME280;15351;52.408;16.826;2023-02-20T05:45:55;100973.66;;;4.46;73.58
26436;BME280;15351;52.408;16.826;2023-02-20T05:48:22;100969.53;;;4.47;73.60
26436;BME280;15351;52.408;16.826;2023-02-20T05:50:49;100970.56;;;4.45;73.68
26436;BME280;15351;52.408;16.826;2023-02-20T05:53:19;100961.87;;;4.45;73.86
26436;BME280;15351;52.408;16.826;2023-02-20T05:55:46;100955.16;;;4.46;73.98
26436;BME280;15351;52.408;16.826;2023-02-20T05:58:13;100950.55;;;4.46;73.96
26436;BME280;15351;52.408;16.826;2023-02-20T06:00:40;100950.80;;;4.45;74.01
26436;BME280;15351;52.408;16.826;2023-02-20T06:03:09;100948.30;;;4.45;74.00
26436;BME280;15351;52.408;16.826;2023-02-20T06:05:37;100941.13;;;4.48;74.22
26436;BME280;15351;52.408;16.826;2023-02-20T06:08:04;100936.88;;;4.54;74.30
26436;BME280;15351;52.408;16.826;2023-02-20T06:10:31;100928.97;;;4.57;74.18
26436;BME280;15351;52.408;16.826;2023-02-20T06:13:02;100918.41;;;4.55;74.22
26436;BME280;15351;52.408;16.826;2023-02-20T06:15:32;100920.45;;;4.57;74.45
26436;BME280;15351;52.408;16.826;2023-02-20T06:17:59;100916.80;;;4.58;74.64
26436;BME280;15351;52.408;16.826;2023-02-20T06:20:25;100916.18;;;4.64;74.79
26436;BME280;15351;52.408;16.826;2023-02-20T06:22:52;100925.39;;;4.67;74.68
26436;BME280;15351;52.408;16.826;2023-02-20T06:25:22;100932.83;;;4.68;74.83
26436;BME280;15351;52.408;16.826;2023-02-20T06:27:52;100927.20;;;4.69;74.83
26436;BME280;15351;52.408;16.826;2023-02-20T06:30:19;100913.09;;;4.72;75.01
26436;BME280;15351;52.408;16.826;2023-02-20T06:32:46;100900.84;;;4.75;75.13
26436;BME280;15351;52.408;16.826;2023-02-20T06:35:13;100899.09;;;4.77;75.06
26436;BME280;15351;52.408;16.826;2023-02-20T06:37:41;100889.88;;;4.74;75.12
26436;BME280;15351;52.408;16.826;2023-02-20T06:40:08;100882.16;;;4.73;75.27
26436;BME280;15351;52.408;16.826;2023-02-20T06:42:35;100880.31;;;4.76;75.48
26436;BME280;15351;52.408;16.826;2023-02-20T06:45:03;100882.84;;;4.79;75.64
26436;BME280;15351;52.408;16.826;2023-02-20T06:47:30;100880.21;;;4.81;75.64
26436;BME280;15351;52.408;16.826;2023-02-20T06:49:57;100882.44;;;4.82;75.55
26436;BME280;15351;52.408;16.826;2023-02-20T06:52:24;100880.25;;;4.82;75.81
26436;BME280;15351;52.408;16.826;2023-02-20T06:54:51;100870.11;;;4.84;75.91
26436;BME280;15351;52.408;16.826;2023-02-20T06:57:20;100862.34;;;4.88;75.82
26436;BME280;15351;52.408;16.826;2023-02-20T06:59:47;100855.92;;;4.88;75.97
26436;BME280;15351;52.408;16.826;2023-02-20T07:02:15;100845.35;;;4.86;75.92
26436;BME280;15351;52.408;16.826;2023-02-20T07:04:47;100847.87;;;4.90;76.18
26436;BME280;15351;52.408;16.826;2023-02-20T07:07:14;100848.52;;;4.95;76.34
26436;BME280;15351;52.408;16.826;2023-02-20T07:09:41;100841.87;;;4.95;76.40
26436;BME280;15351;52.408;16.826;2023-02-20T07:12:08;100837.88;;;4.92;76.25
26436;BME280;15351;52.408;16.826;2023-02-20T07:14:35;100828.39;;;4.97;76.46
26436;BME280;15351;52.408;16.826;2023-02-20T07:17:02;100821.11;;;5.03;76.34
26436;BME280;15351;52.408;16.826;2023-02-20T07:19:29;100814.01;;;5.12;76.60
26436;BME280;15351;52.408;16.826;2023-02-20T07:21:56;100806.61;;;5.19;76.46
26436;BME280;15351;52.408;16.826;2023-02-20T07:24:23;100799.27;;;5.21;76.26
26436;BME280;15351;52.408;16.826;2023-02-20T07:26:50;100790.14;;;5.20;76.27
26436;BME280;15351;52.408;16.826;2023-02-20T07:29:17;100777.17;;;5.21;76.24
26436;BME280;15351;52.408;16.826;2023-02-20T07:31:44;100778.78;;;5.23;76.25
26436;BME280;15351;52.408;16.826;2023-02-20T07:34:12;100766.45;;;5.23;76.16
26436;BME280;15351;52.408;16.826;2023-02-20T07:36:40;100761.23;;;5.24;76.07
26436;BME280;15351;52.408;16.826;2023-02-20T07:39:07;100757.65;;;5.24;76.36
26436;BME280;15351;52.408;16.826;2023-02-20T07:41:34;100752.77;;;5.23;76.45
26436;BME280;15351;52.408;16.826;2023-02-20T07:44:03;100750.72;;;5.22;76.54
26436;BME280;15351;52.408;16.826;2023-02-20T07:46:31;100747.54;;;5.22;76.57
26436;BME280;15351;52.408;16.826;2023-02-20T07:49:03;100750.07;;;5.23;76.74
26436;BME280;15351;52.408;16.826;2023-02-20T07:51:32;100744.78;;;5.24;76.92
26436;BME280;15351;52.408;16.826;2023-02-20T07:53:59;100741.77;;;5.26;77.00
26436;BME280;15351;52.408;16.826;2023-02-20T07:56:26;100736.21;;;5.30;77.24
26436;BME280;15351;52.408;16.826;2023-02-20T07:58:53;100735.75;;;5.34;77.32
26436;BME280;15351;52.408;16.826;2023-02-20T08:01:20;100731.80;;;5.34;77.40
26436;BME280;15351;52.408;16.826;2023-02-20T08:03:47;100728.29;;;5.37;77.57
26436;BME280;15351;52.408;16.826;2023-02-20T08:06:18;100725.11;;;5.39;77.81
26436;BME280;15351;52.408;16.826;2023-02-20T08:08:49;100721.81;;;5.42;78.04
26436;BME280;15351;52.408;16.826;2023-02-20T08:11:17;100715.52;;;5.46;78.33
26436;BME280;15351;52.408;16.826;2023-02-20T08:13:44;100719.70;;;5.47;78.47
26436;BME280;15351;52.408;16.826;2023-02-20T08:16:11;100716.86;;;5.47;78.61
26436;BME280;15351;52.408;16.826;2023-02-20T08:18:38;100714.45;;;5.48;78.67
26436;BME280;15351;52.408;16.826;2023-02-20T08:21:05;100708.30;;;5.53;79.22
26436;BME280;15351;52.408;16.826;2023-02-20T08:23:32;100708.05;;;5.57;79.39
26436;BME280;15351;52.408;16.826;2023-02-20T08:25:59;100709.33;;;5.60;79.42
26436;BME280;15351;52.408;16.826;2023-02-20T08:28:26;100710.91;;;5.63;79.53
26436;BME280;15351;52.408;16.826;2023-02-20T08:30:53;100710.25;;;5.67;79.83
26436;BME280;15351;52.408;16.826;2023-02-20T08:33:20;100699.95;;;5.71;80.02
26436;BME280;15351;52.408;16.826;2023-02-20T08:35:46;100695.75;;;5.76;80.12
26436;BME280;15351;52.408;16.826;2023-02-20T08:40:51;100677.13;;;5.83;80.10
26436;BME280;15351;52.408;16.826;2023-02-20T08:43:18;100664.84;;;5.86;80.45
26436;BME280;15351;52.408;16.826;2023-02-20T08:45:46;100647.83;;;5.93;80.57
26436;BME280;15351;52.408;16.826;2023-02-20T08:48:13;100646.92;;;6.00;81.04
26436;BME280;15351;52.408;16.826;2023-02-20T08:50:39;100631.59;;;6.01;81.13
26436;BME280;15351;52.408;16.826;2023-02-20T08:53:07;100644.88;;;6.04;81.18
26436;BME280;15351;52.408;16.826;2023-02-20T08:55:34;100629.71;;;6.06;81.56
26436;BME280;15351;52.408;16.826;2023-02-20T08:58:01;100618.86;;;6.09;81.78
26436;BME280;15351;52.408;16.826;2023-02-20T09:00:28;100620.21;;;6.16;82.03
26436;BME280;15351;52.408;16.826;2023-02-20T09:02:54;100618.47;;;6.23;82.33
26436;BME280;15351;52.408;16.826;2023-02-20T09:05:22;100611.98;;;6.25;82.68
26436;BME280;15351;52.408;16.826;2023-02-20T09:07:50;100598.56;;;6.29;82.44
26436;BME280;15351;52.408;16.826;2023-02-20T09:10:20;100590.74;;;6.34;82.87
26436;BME280;15351;52.408;16.826;2023-02-20T09:12:47;100592.50;;;6.36;82.77
26436;BME280;15351;52.408;16.826;2023-02-20T09:15:14;100580.42;;;6.41;82.82
26436;BME280;15351;52.408;16.826;2023-02-20T09:17:47;100577.23;;;6.46;83.11
26436;BME280;15351;52.408;16.826;2023-02-20T09:20:17;100558.59;;;6.50;83.06
26436;BME280;15351;52.408;16.826;2023-02-20T09:22:46;100553.42;;;6.55;83.21
26436;BME280;15351;52.408;16.826;2023-02-20T09:25:14;100538.98;;;6.59;83.28
26436;BME280;15351;52.408;16.826;2023-02-20T09:27:41;100542.48;;;6.63;83.27
26436;BME280;15351;52.408;16.826;2023-02-20T09:30:08;100532.73;;;6.71;83.40
26436;BME280;15351;52.408;16.826;2023-02-20T09:32:36;100509.71;;;6.81;83.44
26436;BME280;15351;52.408;16.826;2023-02-20T09:35:03;100478.06;;;6.86;83.19
26436;BME280;15351;52.408;16.826;2023-02-20T09:37:30;100470.85;;;6.89;83.23
26436;BME280;15351;52.408;16.826;2023-02-20T09:39:57;100468.30;;;6.89;83.05
26436;BME280;15351;52.408;16.826;2023-02-20T09:45:15;100478.50;;;6.98;83.15
26436;BME280;15351;52.408;16.826;2023-02-20T09:56:00;100437.42;;;7.18;82.79
26436;BME280;15351;52.408;16.826;2023-02-20T09:58:57;100437.72;;;7.27;82.82
26436;BME280;15351;52.408;16.826;2023-02-20T10:01:28;100441.02;;;7.33;82.49
26436;BME280;15351;52.408;16.826;2023-02-20T10:04:05;100436.36;;;7.35;82.28
26436;BME280;15351;52.408;16.826;2023-02-20T10:06:36;100429.76;;;7.40;82.30
26436;BME280;15351;52.408;16.826;2023-02-20T10:09:11;100422.11;;;7.46;82.13
26436;BME280;15351;52.408;16.826;2023-02-20T10:11:59;100417.27;;;7.55;82.12
26436;BME280;15351;52.408;16.826;2023-02-20T10:14:59;100399.76;;;7.63;81.78
26436;BME280;15351;52.408;16.826;2023-02-20T10:23:37;100364.95;;;7.80;81.02
26436;BME280;15351;52.408;16.826;2023-02-20T10:26:17;100347.38;;;7.92;80.96
26436;BME280;15351;52.408;16.826;2023-02-20T10:28:49;100335.98;;;8.01;80.51
26436;BME280;15351;52.408;16.826;2023-02-20T10:31:42;100332.90;;;8.07;80.35
26436;BME280;15351;52.408;16.826;2023-02-20T10:34:26;100325.10;;;8.13;79.74
26436;BME280;15351;52.408;16.826;2023-02-20T10:37:04;100306.58;;;8.18;79.81
26436;BME280;15351;52.408;16.826;2023-02-20T10:39:33;100292.94;;;8.26;79.43
26436;BME280;15351;52.408;16.826;2023-02-20T10:42:15;100299.54;;;8.31;78.93
26436;BME280;15351;52.408;16.826;2023-02-20T10:45:02;100282.04;;;8.34;78.74
26436;BME280;15351;52.408;16.826;2023-02-20T10:47:51;100275.29;;;8.40;78.60
26436;BME280;15351;52.408;16.826;2023-02-20T10:50:36;100285.50;;;8.48;78.28
26436;BME280;15351;52.408;16.826;2023-02-20T10:56:35;100286.15;;;8.64;77.88
26436;BME280;15351;52.408;16.826;2023-02-20T11:00:03;100273.27;;;8.72;77.51
26436;BME280;15351;52.408;16.826;2023-02-20T11:02:29;100268.73;;;8.80;77.20
26436;BME280;15351;52.408;16.826;2023-02-20T11:05:06;100259.45;;;8.87;76.98
26436;BME280;15351;52.408;16.826;2023-02-20T11:07:34;100254.62;;;8.92;76.68
26436;BME280;15351;52.408;16.826;2023-02-20T11:10:04;100246.63;;;8.96;76.20
26436;BME280;15351;52.408;16.826;2023-02-20T11:13:00;100249.46;;;9.00;76.19
26436;BME280;15351;52.408;16.826;2023-02-20T11:15:32;100247.33;;;9.07;75.72
26436;BME280;15351;52.408;16.826;2023-02-20T11:18:00;100248.20;;;9.13;75.50
26436;BME280;15351;52.408;16.826;2023-02-20T11:23:40;100233.08;;;9.23;75.30
26436;BME280;15351;52.408;16.826;2023-02-20T11:29:05;100237.98;;;9.38;74.18
26436;BME280;15351;52.408;16.826;2023-02-20T11:31:38;100226.40;;;9.42;73.85
26436;BME280;15351;52.408;16.826;2023-02-20T11:34:05;100216.35;;;9.46;73.29
26436;BME280;15351;52.408;16.826;2023-02-20T11:36:42;100207.34;;;9.51;73.29
26436;BME280;15351;52.408;16.826;2023-02-20T11:39:24;100201.97;;;9.65;73.35
26436;BME280;15351;52.408;16.826;2023-02-20T11:42:14;100191.23;;;9.83;73.00
26436;BME280;15351;52.408;16.826;2023-02-20T11:44:42;100196.13;;;9.98;72.50
26436;BME280;15351;52.408;16.826;2023-02-20T11:47:25;100185.39;;;10.06;72.17
26436;BME280;15351;52.408;16.826;2023-02-20T11:50:17;100180.61;;;10.12;71.66
26436;BME280;15351;52.408;16.826;2023-02-20T11:53:01;100178.77;;;10.16;71.23
26436;BME280;15351;52.408;16.826;2023-02-20T11:55:34;100176.39;;;10.16;70.62
26436;BME280;15351;52.408;16.826;2023-02-20T11:58:01;100177.05;;;10.15;70.36
26436;BME280;15351;52.408;16.826;2023-02-20T12:00:47;100173.60;;;10.12;70.12
26436;BME280;15351;52.408;16.826;2023-02-20T12:03:24;100174.44;;;10.10;70.28
26436;BME280;15351;52.408;16.826;2023-02-20T12:05:51;100165.81;;;10.10;70.22
26436;BME280;15351;52.408;16.826;2023-02-20T12:08:47;100166.08;;;10.09;69.67
26436;BME280;15351;52.408;16.826;2023-02-20T12:11:20;100160.14;;;10.08;69.34
26436;BME280;15351;52.408;16.826;2023-02-20T12:13:49;100149.45;;;10.09;69.20
26436;BME280;15351;52.408;16.826;2023-02-20T12:19:25;100146.19;;;10.04;69.20
26436;BME280;15351;52.408;16.826;2023-02-20T12:25:27;100145.20;;;10.05;68.99
26436;BME280;15351;52.408;16.826;2023-02-20T12:30:59;100146.73;;;10.07;68.63
26436;BME280;15351;52.408;16.826;2023-02-20T12:34:29;100140.58;;;10.06;68.34
26436;BME280;15351;52.408;16.826;2023-02-20T12:39:40;100134.77;;;10.05;68.59
26436;BME280;15351;52.408;16.826;2023-02-20T12:42:29;100135.52;;;10.06;68.42
26436;BME280;15351;52.408;16.826;2023-02-20T12:55:20;100119.70;;;9.97;68.41
26436;BME280;15351;52.408;16.826;2023-02-20T13:01:16;100100.16;;;9.98;68.32
26436;BME280;15351;52.408;16.826;2023-02-20T13:04:02;100100.30;;;9.99;68.32
26436;BME280;15351;52.408;16.826;2023-02-20T13:06:57;100096.52;;;9.99;68.46
26436;BME280;15351;52.408;16.826;2023-02-20T13:12:32;100079.71;;;10.01;68.94
26436;BME280;15351;52.408;16.826;2023-02-20T13:17:58;100094.83;;;10.07;68.49
26436;BME280;15351;52.408;16.826;2023-02-20T13:20:31;100090.99;;;10.06;68.51
26436;BME280;15351;52.408;16.826;2023-02-20T13:23:25;100075.44;;;10.03;68.68
26436;BME280;15351;52.408;16.826;2023-02-20T13:25:55;100071.09;;;10.03;69.14
26436;BME280;15351;52.408;16.826;2023-02-20T13:28:40;100067.19;;;10.05;68.89
26436;BME280;15351;52.408;16.826;2023-02-20T13:31:23;100064.83;;;10.09;69.05
26436;BME280;15351;52.408;16.826;2023-02-20T13:39:26;100068.08;;;10.13;69.33
26436;BME280;15351;52.408;16.826;2023-02-20T13:52:37;100053.63;;;10.18;69.27
26436;BME280;15351;52.408;16.826;2023-02-20T13:55:25;100046.17;;;10.17;69.40
26436;BME280;15351;52.408;16.826;2023-02-20T14:03:13;100043.64;;;10.26;69.27
26436;BME280;15351;52.408;16.826;2023-02-20T14:06:15;100032.16;;;10.26;69.65
26436;BME280;15351;52.408;16.826;2023-02-20T14:08:47;100027.73;;;10.27;69.71
26436;BME280;15351;52.408;16.826;2023-02-20T14:11:33;100029.23;;;10.31;69.81
26436;BME280;15351;52.408;16.826;2023-02-20T14:14:28;100023.55;;;10.34;69.67
26436;BME280;15351;52.408;16.826;2023-02-20T14:17:19;100026.45;;;10.36;69.76
26436;BME280;15351;52.408;16.826;2023-02-20T14:20:01;100030.66;;;10.35;70.04
26436;BME280;15351;52.408;16.826;2023-02-20T14:22:34;100033.66;;;10.36;70.15
26436;BME280;15351;52.408;16.826;2023-02-20T14:27:39;100035.62;;;10.42;70.10
26436;BME280;15351;52.408;16.826;2023-02-20T14:30:12;100032.64;;;10.43;70.02
26436;BME280;15351;52.408;16.826;2023-02-20T14:33:01;100032.96;;;10.45;70.47
26436;BME280;15351;52.408;16.826;2023-02-20T14:38:25;100029.48;;;10.45;70.74
26436;BME280;15351;52.408;16.826;2023-02-20T14:41:19;100030.12;;;10.48;70.70
26436;BME280;15351;52.408;16.826;2023-02-20T14:48:01;100019.13;;;10.46;71.15
26436;BME280;15351;52.408;16.826;2023-02-20T14:50:38;100014.50;;;10.48;71.31
26436;BME280;15351;52.408;16.826;2023-02-20T14:53:29;100011.15;;;10.50;71.42
26436;BME280;15351;52.408;16.826;2023-02-20T14:56:27;100009.41;;;10.52;71.51
26436;BME280;15351;52.408;16.826;2023-02-20T15:02:30;100015.83;;;10.51;71.80
26436;BME280;15351;52.408;16.826;2023-02-20T15:06:00;100020.04;;;10.54;71.80
26436;BME280;15351;52.408;16.826;2023-02-20T15:08:57;100021.84;;;10.52;71.95
26436;BME280;15351;52.408;16.826;2023-02-20T15:11:55;100015.27;;;10.50;72.14
26436;BME280;15351;52.408;16.826;2023-02-20T15:14:27;100009.21;;;10.48;72.42
26436;BME280;15351;52.408;16.826;2023-02-20T15:17:32;100022.52;;;10.50;72.37
26436;BME280;15351;52.408;16.826;2023-02-20T15:20:18;100027.20;;;10.50;72.35
26436;BME280;15351;52.408;16.826;2023-02-20T15:22:46;100015.42;;;10.46;72.48
26436;BME280;15351;52.408;16.826;2023-02-20T15:25:28;100003.17;;;10.44;72.81
26436;BME280;15351;52.408;16.826;2023-02-20T15:28:22;100000.83;;;10.48;72.69
26436;BME280;15351;52.408;16.826;2023-02-20T15:31:20;99994.44;;;10.50;72.50
26436;BME280;15351;52.408;16.826;2023-02-20T15:34:16;99997.13;;;10.53;72.53
26436;BME280;15351;52.408;16.826;2023-02-20T15:37:08;100000.25;;;10.54;72.37